Time;durP1;ratioP1;P1;durP2;ratioP2;P2;SDS_P1;SDS_P2;PMS_P1;PMS_P2;Temp;Humidity;BMP_temperature;BMP_pressure;BME280_temperature;BME280_humidity;BME280_pressure;Samples;Min_cycle;Max_cycle;Signal;HPM_P1;HPM_P2
2022/12/12 00:01:35;;;;;;;40.40;20.63;;;;;;;0.18;88.45;101258.41;5010276;28;20242;-72
2022/12/12 00:04:01;;;;;;;38.07;20.60;;;;;;;0.22;87.91;101249.41;5011100;28;20198;-72
2022/12/12 00:06:27;;;;;;;37.43;20.80;;;;;;;0.22;88.35;101249.41;5014807;28;20768;-72
2022/12/12 00:08:52;;;;;;;39.97;22.23;;;;;;;0.20;87.51;101245.94;5010898;28;20195;-71
2022/12/12 00:11:19;;;;;;;39.07;21.17;;;;;;;0.04;88.73;101253.22;5012484;28;20218;-71
2022/12/12 00:13:45;;;;;;;35.83;20.77;;;;;;;-0.06;88.84;101251.75;5011187;28;20270;-71
2022/12/12 00:16:11;;;;;;;36.50;19.23;;;;;;;-0.10;89.06;101251.44;5011522;28;20790;-71
2022/12/12 00:18:37;;;;;;;38.13;20.90;;;;;;;-0.17;89.57;101250.13;5008543;28;20861;-71
2022/12/12 00:21:06;;;;;;;39.20;21.63;;;;;;;-0.18;89.50;101255.94;5011590;28;20224;-72
2022/12/12 00:23:32;;;;;;;37.13;19.73;;;;;;;-0.21;89.69;101250.72;5009659;28;20222;-72
2022/12/12 00:26:05;;;;;;;40.03;21.27;;;;;;;-0.24;90.50;101254.66;5011587;28;20207;-71
2022/12/12 00:28:30;;;;;;;37.83;21.80;;;;;;;-0.22;90.23;101258.16;5010588;28;20195;-72
2022/12/12 00:30:56;;;;;;;39.17;21.90;;;;;;;-0.25;89.68;101257.94;5011073;28;20195;-71
2022/12/12 00:33:21;;;;;;;41.60;21.13;;;;;;;-0.24;89.19;101262.19;5011604;28;20195;-73
2022/12/12 00:35:52;;;;;;;37.53;20.70;;;;;;;-0.25;90.31;101257.94;5011345;28;20226;-73
2022/12/12 00:38:20;;;;;;;38.83;20.10;;;;;;;-0.28;89.42;101261.13;5012090;28;20882;-72
2022/12/12 00:40:46;;;;;;;36.17;19.20;;;;;;;-0.27;89.25;101256.97;5021006;28;20215;-73
2022/12/12 00:43:11;;;;;;;41.40;22.43;;;;;;;-0.27;89.96;101257.84;5012041;28;20198;-72
2022/12/12 00:45:37;;;;;;;41.47;21.40;;;;;;;-0.29;89.67;101253.47;5012036;28;20565;-72
2022/12/12 00:48:04;;;;;;;44.50;22.17;;;;;;;-0.33;90.48;101254.03;5011930;28;20199;-72
2022/12/12 00:50:29;;;;;;;38.57;21.87;;;;;;;-0.32;90.56;101258.31;5011875;28;20230;-72
2022/12/12 00:52:56;;;;;;;43.23;21.93;;;;;;;-0.33;90.64;101261.56;5011973;28;20222;-71
2022/12/12 00:55:23;;;;;;;41.83;21.87;;;;;;;-0.34;90.35;101253.16;5009093;28;20198;-72
2022/12/12 00:57:49;;;;;;;40.87;22.47;;;;;;;-0.33;91.08;101259.06;4993707;28;20198;-73
2022/12/12 01:00:15;;;;;;;43.97;22.73;;;;;;;-0.36;91.05;101261.38;5011887;28;20215;-73
2022/12/12 01:02:41;;;;;;;40.47;21.13;;;;;;;-0.36;90.49;101258.88;5011627;28;20211;-72
2022/12/12 01:05:07;;;;;;;42.17;21.43;;;;;;;-0.34;90.16;101269.88;5008146;28;20534;-73
2022/12/12 01:07:32;;;;;;;42.43;19.83;;;;;;;-0.38;90.92;101266.31;5014438;28;20219;-73
2022/12/12 01:09:58;;;;;;;43.17;21.83;;;;;;;-0.35;91.08;101270.66;5004892;28;20656;-72
2022/12/12 01:12:23;;;;;;;40.63;22.03;;;;;;;-0.36;90.22;101267.25;5003641;28;20687;-72
2022/12/12 01:14:49;;;;;;;39.73;21.27;;;;;;;-0.34;90.51;101275.81;5007012;28;20725;-71
2022/12/12 01:17:14;;;;;;;41.23;21.53;;;;;;;-0.35;90.00;101274.06;5007722;28;20187;-71
2022/12/12 01:19:40;;;;;;;40.70;21.53;;;;;;;-0.34;89.71;101275.81;5008730;28;20235;-72
2022/12/12 01:22:05;;;;;;;40.60;20.97;;;;;;;-0.31;90.20;101272.63;5003845;28;20221;-72
2022/12/12 01:24:31;;;;;;;41.83;21.10;;;;;;;-0.30;88.94;101279.41;5011266;28;20195;-71
2022/12/12 01:26:56;;;;;;;41.33;21.80;;;;;;;-0.28;89.39;101272.81;5010061;28;20195;-70
2022/12/12 01:29:21;;;;;;;40.43;21.10;;;;;;;-0.30;90.14;101274.38;5009203;28;20290;-72
2022/12/12 01:31:47;;;;;;;39.97;20.50;;;;;;;-0.30;89.63;101279.41;5011003;28;20328;-72
2022/12/12 01:34:12;;;;;;;42.07;22.37;;;;;;;-0.31;89.57;101281.03;5011035;28;20206;-72
2022/12/12 01:36:38;;;;;;;42.23;20.73;;;;;;;-0.28;89.92;101277.84;5010434;28;20282;-72
2022/12/12 01:39:04;;;;;;;40.67;20.47;;;;;;;-0.30;89.77;101277.75;5007758;28;20200;-72
2022/12/12 01:41:30;;;;;;;38.27;20.83;;;;;;;-0.31;89.17;101278.50;5001078;28;20269;-71
2022/12/12 01:43:59;;;;;;;37.23;20.30;;;;;;;-0.32;89.77;101280.94;5002488;28;20582;-71
2022/12/12 01:46:39;;;;;;;38.87;20.20;;;;;;;-0.29;89.46;101286.16;5004307;28;20663;-71
2022/12/12 01:49:08;;;;;;;39.50;20.47;;;;;;;-0.29;88.85;101278.63;5001640;28;20201;-71
2022/12/12 01:51:38;;;;;;;37.57;20.10;;;;;;;-0.29;89.35;101282.03;5003196;28;20211;-72
2022/12/12 01:54:08;;;;;;;39.67;19.23;;;;;;;-0.28;89.77;101286.28;5002546;28;20203;-71
2022/12/12 01:56:36;;;;;;;40.53;20.80;;;;;;;-0.28;88.70;101281.25;4998330;28;20282;-72
2022/12/12 01:59:06;;;;;;;40.93;21.13;;;;;;;-0.30;89.40;101281.91;5000969;28;20202;-72
2022/12/12 02:01:32;;;;;;;36.67;20.07;;;;;;;-0.29;89.00;101284.53;5000156;28;20215;-72
2022/12/12 02:04:00;;;;;;;37.33;19.90;;;;;;;-0.29;89.69;101284.53;5001918;28;20203;-71
2022/12/12 02:06:27;;;;;;;40.67;21.23;;;;;;;-0.32;89.60;101279.28;5001632;28;20191;-72
2022/12/12 02:08:56;;;;;;;39.93;20.43;;;;;;;-0.31;89.12;101282.69;5001280;28;20886;-72
2022/12/12 02:11:22;;;;;;;41.20;20.50;;;;;;;-0.30;89.64;101282.78;5010777;28;20207;-71
2022/12/12 02:13:49;;;;;;;40.20;21.47;;;;;;;-0.29;89.86;101281.13;5007192;28;20187;-70
2022/12/12 02:16:29;;;;;;;39.83;20.30;;;;;;;-0.31;89.21;101286.06;5001518;28;20266;-71
2022/12/12 02:19:07;;;;;;;37.60;20.03;;;;;;;-0.31;89.17;101287.72;5004357;28;20191;-70
2022/12/12 02:21:58;;;;;;;40.43;20.77;;;;;;;-0.30;89.58;101290.34;5004084;28;20226;-72
2022/12/12 02:24:39;;;;;;;37.77;20.17;;;;;;;-0.33;90.01;101290.13;5000642;28;20274;-71
2022/12/12 02:27:42;;;;;;;38.50;20.60;;;;;;;-0.32;90.49;101286.81;5005316;28;20587;-71
2022/12/12 02:30:32;;;;;;;40.77;20.30;;;;;;;-0.36;90.39;101282.34;5005964;28;20205;-72
2022/12/12 02:33:25;;;;;;;40.73;20.90;;;;;;;-0.37;91.10;101277.22;5004496;28;20208;-71
2022/12/12 02:35:59;;;;;;;38.40;20.17;;;;;;;-0.41;90.37;101283.69;5006244;28;20183;-72
2022/12/12 02:39:09;;;;;;;40.73;20.57;;;;;;;-0.40;91.05;101287.09;5009899;28;20895;-72
2022/12/12 02:41:39;;;;;;;41.03;20.30;;;;;;;-0.39;90.48;101281.28;4992830;28;20231;-72
2022/12/12 02:44:21;;;;;;;37.37;19.73;;;;;;;-0.41;90.61;101283.69;5007499;28;20677;-71
2022/12/12 02:47:06;;;;;;;39.97;19.80;;;;;;;-0.41;90.90;101287.84;5007636;28;20632;-72
2022/12/12 02:49:48;;;;;;;37.87;20.00;;;;;;;-0.42;90.38;101289.47;5006835;28;20653;-72
2022/12/12 02:52:15;;;;;;;38.37;19.70;;;;;;;-0.44;90.23;101290.16;5011467;28;20260;-72
2022/12/12 02:54:40;;;;;;;40.80;19.67;;;;;;;-0.49;90.32;101282.25;5006982;28;20187;-72
2022/12/12 02:57:16;;;;;;;37.13;19.33;;;;;;;-0.49;90.66;101283.94;5009705;28;20222;-72
2022/12/12 02:59:46;;;;;;;36.47;19.43;;;;;;;-0.54;90.79;101290.28;5001777;28;21467;-72
2022/12/12 03:02:21;;;;;;;36.33;19.53;;;;;;;-0.60;91.74;101285.69;5006183;28;20261;-71
2022/12/12 03:07:59;;;;;;;40.80;20.37;;;;;;;-0.59;91.63;101292.44;5014029;28;20202;-72
2022/12/12 03:10:43;;;;;;;35.30;18.70;;;;;;;-0.62;91.65;101289.75;5008396;28;20667;-72
2022/12/12 03:13:42;;;;;;;40.20;20.07;;;;;;;-0.67;91.97;101292.69;5007041;28;20197;-72
2022/12/12 03:16:28;;;;;;;36.90;18.17;;;;;;;-0.72;91.64;101292.34;5004598;28;20191;-72
2022/12/12 03:19:12;;;;;;;39.67;20.93;;;;;;;-0.79;91.78;101295.22;5006394;28;20244;-72
2022/12/12 03:21:40;;;;;;;39.67;21.10;;;;;;;-0.84;91.78;101293.13;5009244;28;20687;-72
2022/12/12 03:24:34;;;;;;;41.13;19.87;;;;;;;-0.88;92.36;101289.53;5007231;28;20210;-72
2022/12/12 03:27:05;;;;;;;39.97;20.83;;;;;;;-0.88;92.70;101286.13;5008290;28;20198;-72
2022/12/12 03:29:37;;;;;;;45.60;21.97;;;;;;;-0.97;92.44;101281.34;5008348;28;20201;-71
2022/12/12 03:32:09;;;;;;;42.63;21.43;;;;;;;-0.96;92.83;101292.28;5013167;28;20213;-72
2022/12/12 03:34:40;;;;;;;43.80;22.40;;;;;;;-1.03;92.38;101287.56;5013570;28;20238;-72
2022/12/12 03:37:12;;;;;;;48.37;22.13;;;;;;;-1.14;92.54;101276.75;5009208;28;20191;-72
2022/12/12 03:39:44;;;;;;;46.37;21.47;;;;;;;-1.22;93.04;101280.38;5013493;28;20218;-70
2022/12/12 03:42:31;;;;;;;43.30;21.63;;;;;;;-1.28;92.22;101286.56;5027181;28;20221;-72
2022/12/12 03:45:05;;;;;;;44.17;20.83;;;;;;;-1.37;92.44;101280.88;5011470;28;20270;-72
2022/12/12 03:47:44;;;;;;;44.97;21.90;;;;;;;-1.44;92.70;101284.59;5011182;28;20226;-72
2022/12/12 03:50:19;;;;;;;44.30;21.27;;;;;;;-1.54;92.63;101287.19;5007754;28;20326;-72
2022/12/12 03:53:21;;;;;;;43.57;20.73;;;;;;;-1.57;92.83;101294.47;5009247;28;20214;-72
2022/12/12 03:56:09;;;;;;;41.90;21.77;;;;;;;-1.60;92.38;101300.91;4993064;28;20237;-72
2022/12/12 03:58:49;;;;;;;43.60;21.40;;;;;;;-1.66;92.38;101302.97;5009382;28;20281;-72
2022/12/12 04:01:19;;;;;;;43.13;20.83;;;;;;;-1.64;92.01;101303.94;5006754;28;20241;-72
2022/12/12 04:04:00;;;;;;;40.90;20.70;;;;;;;-1.69;91.93;101310.28;5012202;28;20237;-72
2022/12/12 04:06:32;;;;;;;42.83;20.97;;;;;;;-1.77;92.10;101307.19;5009538;28;20710;-72
2022/12/12 04:15:25;;;;;;;41.70;19.47;;;;;;;-1.95;92.43;101320.88;5011827;28;20198;-69
2022/12/12 04:18:13;;;;;;;41.33;19.67;;;;;;;-2.01;92.35;101320.41;5008726;28;20198;-72
2022/12/12 04:23:54;;;;;;;40.63;19.80;;;;;;;-2.12;92.19;101322.84;5006809;28;20209;-70
2022/12/12 04:26:39;;;;;;;43.83;20.67;;;;;;;-2.18;91.89;101322.38;5005138;28;20214;-71
2022/12/12 04:29:10;;;;;;;38.20;18.83;;;;;;;-2.23;91.74;101331.16;5002185;28;20195;-71
2022/12/12 04:31:50;;;;;;;41.40;19.97;;;;;;;-2.26;92.23;101328.44;5018852;28;20262;-72
2022/12/12 04:34:43;;;;;;;41.57;19.47;;;;;;;-2.22;92.66;101326.28;5004549;28;20191;-71
2022/12/12 04:37:14;;;;;;;44.57;19.77;;;;;;;-2.24;92.92;101327.81;4993458;28;20264;-70
2022/12/12 04:39:41;;;;;;;48.43;22.20;;;;;;;-2.25;92.98;101321.00;5009755;28;20187;-69
2022/12/12 04:42:11;;;;;;;48.90;21.27;;;;;;;-2.29;93.05;101324.03;5009773;28;20215;-69
2022/12/12 04:44:40;;;;;;;49.90;22.30;;;;;;;-2.29;93.46;101328.19;5003609;28;20704;-70
2022/12/12 04:47:07;;;;;;;40.00;20.73;;;;;;;-2.26;93.53;101329.31;5004117;28;20245;-72
2022/12/12 04:49:35;;;;;;;42.40;22.10;;;;;;;-2.25;94.04;101331.03;5010294;28;20409;-70
2022/12/12 04:52:05;;;;;;;41.57;20.63;;;;;;;-2.34;93.85;101339.50;5006806;28;20662;-72
2022/12/12 04:54:40;;;;;;;41.03;20.07;;;;;;;-2.38;93.38;101340.91;5003494;28;20187;-71
2022/12/12 04:57:08;;;;;;;43.77;20.87;;;;;;;-2.53;93.06;101339.69;5000589;28;20950;-71
2022/12/12 04:59:35;;;;;;;40.40;19.83;;;;;;;-2.55;92.90;101333.69;5007523;28;20481;-71
2022/12/12 05:02:17;;;;;;;41.13;20.63;;;;;;;-2.54;92.80;101342.06;5006480;28;20239;-71
2022/12/12 05:04:54;;;;;;;39.27;20.33;;;;;;;-2.60;92.64;101347.50;5007172;28;20644;-71
2022/12/12 05:07:30;;;;;;;41.47;20.00;;;;;;;-2.63;92.87;101344.75;5009538;28;20970;-70
2022/12/12 05:09:57;;;;;;;40.20;19.97;;;;;;;-2.64;92.52;101342.09;5005199;28;20191;-71
2022/12/12 05:12:22;;;;;;;45.03;21.30;;;;;;;-2.62;93.30;101343.13;5006418;28;20233;-71
2022/12/12 05:14:48;;;;;;;43.57;20.60;;;;;;;-2.65;93.15;101341.25;5008178;28;20446;-71
2022/12/12 05:17:19;;;;;;;42.13;20.80;;;;;;;-2.71;93.10;101345.75;5010390;28;20187;-71
2022/12/12 05:19:44;;;;;;;40.70;21.27;;;;;;;-2.72;93.49;101343.16;5010067;28;20226;-70
2022/12/12 05:22:10;;;;;;;41.63;20.77;;;;;;;-2.80;93.77;101344.19;5007714;28;20477;-71
2022/12/12 05:24:35;;;;;;;46.87;22.70;;;;;;;-2.84;93.66;101343.06;5011050;28;20191;-71
2022/12/12 05:27:00;;;;;;;45.93;21.97;;;;;;;-2.85;93.41;101338.78;5005150;28;20202;-71
2022/12/12 05:29:26;;;;;;;43.40;20.50;;;;;;;-2.88;93.16;101343.56;5010523;28;20257;-71
2022/12/12 05:31:51;;;;;;;44.43;21.53;;;;;;;-2.94;92.98;101352.22;5007629;28;20673;-71
2022/12/12 05:34:17;;;;;;;40.97;20.87;;;;;;;-2.99;93.05;101345.97;5008557;28;20214;-72
2022/12/12 05:36:42;;;;;;;46.77;20.67;;;;;;;-3.11;92.98;101345.88;5009168;28;20201;-72
2022/12/12 05:39:08;;;;;;;39.43;20.03;;;;;;;-3.14;93.02;101343.09;5007869;28;20198;-71
2022/12/12 05:41:33;;;;;;;48.63;20.83;;;;;;;-3.15;92.82;101342.97;5010035;28;20223;-71
2022/12/12 05:43:58;;;;;;;44.70;21.00;;;;;;;-3.24;92.76;101350.63;5009308;28;20202;-71
2022/12/12 05:46:24;;;;;;;40.37;20.63;;;;;;;-3.21;92.70;101345.00;5008737;28;20225;-71
2022/12/12 05:48:50;;;;;;;41.93;19.90;;;;;;;-3.19;92.32;101350.97;5008489;28;20229;-71
2022/12/12 05:51:18;;;;;;;40.53;20.53;;;;;;;-3.24;92.50;101355.63;5010441;28;20253;-71
2022/12/12 05:53:45;;;;;;;40.00;20.90;;;;;;;-3.27;92.46;101352.00;5019306;28;20935;-71
2022/12/12 05:56:11;;;;;;;42.43;19.83;;;;;;;-3.31;92.54;101360.88;5005505;28;20500;-71
2022/12/12 05:58:39;;;;;;;43.50;20.70;;;;;;;-3.35;92.73;101360.50;5003100;28;20333;-71
2022/12/12 06:01:05;;;;;;;43.23;20.83;;;;;;;-3.39;92.90;101356.91;5005649;28;20497;-72
2022/12/12 06:03:31;;;;;;;44.10;20.53;;;;;;;-3.38;92.48;101360.25;4999576;28;20450;-71
2022/12/12 06:05:58;;;;;;;40.77;20.30;;;;;;;-3.41;92.58;101372.53;5010621;28;20277;-72
2022/12/12 06:08:23;;;;;;;43.63;21.33;;;;;;;-3.42;93.02;101370.75;5010357;28;20974;-71
2022/12/12 06:10:48;;;;;;;50.33;24.47;;;;;;;-3.42;93.18;101368.25;5009172;28;20916;-71
2022/12/12 06:13:14;;;;;;;59.33;31.30;;;;;;;-3.45;93.39;101368.88;5008360;28;20250;-71
2022/12/12 06:15:40;;;;;;;60.57;31.30;;;;;;;-3.50;93.70;101372.63;5005000;28;20223;-70
2022/12/12 06:18:07;;;;;;;49.70;24.77;;;;;;;-3.55;93.72;101371.38;5008998;28;20660;-71
2022/12/12 06:20:32;;;;;;;45.57;21.90;;;;;;;-3.53;93.85;101374.03;5010525;28;20298;-71
2022/12/12 06:22:57;;;;;;;54.17;25.97;;;;;;;-3.53;94.64;101377.41;5009252;28;20549;-71
2022/12/12 06:25:23;;;;;;;55.03;29.13;;;;;;;-3.53;94.46;101374.91;5008534;28;20195;-71
2022/12/12 06:27:49;;;;;;;49.40;25.60;;;;;;;-3.60;94.02;101391.75;5009015;28;20195;-70
2022/12/12 06:30:15;;;;;;;48.23;24.40;;;;;;;-3.64;94.04;101380.63;5012906;28;20210;-71
2022/12/12 06:32:41;;;;;;;46.77;21.77;;;;;;;-3.68;93.88;101385.25;5009802;28;20457;-71
2022/12/12 06:35:07;;;;;;;43.13;21.47;;;;;;;-3.73;93.60;101382.34;5017351;28;20205;-71
2022/12/12 06:37:33;;;;;;;43.23;21.93;;;;;;;-3.70;94.10;101392.63;5008772;28;20199;-72
2022/12/12 06:39:58;;;;;;;40.07;20.77;;;;;;;-3.72;93.90;101386.59;5017399;28;20473;-72
2022/12/12 06:42:24;;;;;;;42.50;21.77;;;;;;;-3.74;93.41;101388.13;5009988;28;20226;-71
2022/12/12 06:44:49;;;;;;;45.03;21.50;;;;;;;-3.80;93.15;101394.22;5013377;28;20192;-71
2022/12/12 06:47:15;;;;;;;46.03;22.53;;;;;;;-3.83;93.04;101398.97;4997935;28;20207;-70
2022/12/12 06:49:40;;;;;;;45.33;22.60;;;;;;;-3.84;93.21;101399.72;5008204;28;20310;-72
2022/12/12 06:52:06;;;;;;;59.47;28.93;;;;;;;-3.86;93.50;101399.56;5002749;28;20239;-69
2022/12/12 06:54:31;;;;;;;60.73;30.40;;;;;;;-3.87;93.34;101396.97;5002450;28;20202;-72
2022/12/12 06:56:57;;;;;;;60.40;29.03;;;;;;;-3.86;93.23;101396.22;5003181;28;20201;-69
2022/12/12 06:59:22;;;;;;;53.67;26.97;;;;;;;-3.88;92.80;101405.19;5004493;28;20290;-72
2022/12/12 07:01:48;;;;;;;50.37;25.37;;;;;;;-3.90;93.30;101405.09;5003419;28;20296;-70
2022/12/12 07:04:14;;;;;;;49.57;25.27;;;;;;;-3.76;93.63;101404.63;5005581;28;20201;-70
2022/12/12 07:06:40;;;;;;;47.13;23.37;;;;;;;-3.78;93.65;101406.09;5000782;28;20611;-69
2022/12/12 07:09:07;;;;;;;47.43;21.97;;;;;;;-3.77;93.28;101404.50;5001667;28;20442;-69
2022/12/12 07:11:32;;;;;;;46.70;22.83;;;;;;;-3.82;93.27;101408.25;5003422;28;20540;-70
2022/12/12 07:13:58;;;;;;;49.57;22.13;;;;;;;-3.83;93.32;101407.34;5016419;28;20440;-72
2022/12/12 07:16:24;;;;;;;49.17;23.47;;;;;;;-3.85;92.95;101403.84;5006045;28;20199;-69
2022/12/12 07:18:50;;;;;;;48.63;22.37;;;;;;;-3.88;93.41;101410.19;5015361;28;20488;-69
2022/12/12 07:21:17;;;;;;;43.47;21.50;;;;;;;-3.88;93.60;101416.09;5004113;28;20506;-68
2022/12/12 07:23:43;;;;;;;47.33;22.13;;;;;;;-3.91;93.44;101415.81;5005569;28;20190;-68
2022/12/12 07:26:16;;;;;;;42.30;20.20;;;;;;;-3.93;93.20;101417.31;5001929;28;20465;-68
2022/12/12 07:28:42;;;;;;;45.60;21.33;;;;;;;-3.96;93.53;101414.56;4990752;28;20195;-68
2022/12/12 07:31:11;;;;;;;48.50;21.70;;;;;;;-3.99;93.59;101413.44;5003129;28;20536;-68
2022/12/12 07:33:37;;;;;;;43.93;22.17;;;;;;;-4.02;93.99;101409.03;5009848;28;20446;-69
2022/12/12 07:36:03;;;;;;;44.90;21.10;;;;;;;-4.05;93.51;101412.91;5007068;28;20435;-69
2022/12/12 07:38:29;;;;;;;40.20;19.63;;;;;;;-4.08;93.44;101416.03;4990742;28;20487;-69
2022/12/12 07:40:54;;;;;;;45.80;20.77;;;;;;;-4.09;93.62;101415.91;5000544;28;20473;-69
2022/12/12 07:43:20;;;;;;;43.60;21.70;;;;;;;-4.10;93.59;101422.50;5009336;28;20188;-69
2022/12/12 07:45:46;;;;;;;44.43;20.63;;;;;;;-4.09;93.35;101419.25;5008885;28;20694;-69
2022/12/12 07:48:12;;;;;;;42.13;20.97;;;;;;;-4.09;92.94;101419.25;5010217;28;20198;-69
2022/12/12 07:50:39;;;;;;;44.80;21.87;;;;;;;-4.09;92.80;101420.91;5020935;28;20507;-69
2022/12/12 07:53:06;;;;;;;40.57;21.00;;;;;;;-4.13;92.99;101413.88;5015529;28;20451;-69
2022/12/12 07:55:32;;;;;;;47.43;21.07;;;;;;;-4.12;92.89;101426.50;5003333;28;20521;-69
2022/12/12 07:57:58;;;;;;;38.83;19.23;;;;;;;-4.16;92.46;101423.59;5006357;28;20513;-69
2022/12/12 08:00:23;;;;;;;41.13;19.67;;;;;;;-4.13;92.88;101424.75;5004298;28;20627;-69
2022/12/12 08:02:49;;;;;;;41.83;19.73;;;;;;;-4.07;92.92;101425.28;5012656;28;20208;-69
2022/12/12 08:05:15;;;;;;;44.63;20.63;;;;;;;-4.05;92.84;101432.91;5005239;28;20992;-69
2022/12/12 08:07:40;;;;;;;45.10;21.47;;;;;;;-4.00;92.61;101422.53;5002893;28;20192;-69
2022/12/12 08:10:06;;;;;;;44.20;22.17;;;;;;;-3.95;92.47;101423.81;5006831;28;20433;-69
2022/12/12 08:12:32;;;;;;;46.83;24.13;;;;;;;-3.92;93.21;101420.72;5000584;28;20211;-69
2022/12/12 08:14:57;;;;;;;47.73;24.30;;;;;;;-3.88;92.82;101418.59;4998493;28;20184;-69
2022/12/12 08:17:23;;;;;;;44.20;21.87;;;;;;;-3.85;92.55;101422.97;5006829;28;20767;-70
2022/12/12 08:19:49;;;;;;;45.83;23.17;;;;;;;-3.82;92.56;101416.59;5011624;28;20286;-69
2022/12/12 08:22:14;;;;;;;43.23;22.17;;;;;;;-3.82;92.57;101420.75;5004877;28;20215;-70
2022/12/12 08:24:40;;;;;;;52.37;24.57;;;;;;;-3.75;92.38;101423.88;5013485;28;20202;-70
2022/12/12 08:27:05;;;;;;;46.43;23.93;;;;;;;-3.71;91.98;101425.91;5004729;28;20206;-70
2022/12/12 08:29:31;;;;;;;47.60;22.97;;;;;;;-3.72;92.38;101425.75;5012814;28;20175;-70
2022/12/12 08:31:56;;;;;;;46.53;23.07;;;;;;;-3.66;92.37;101424.66;5010534;28;20669;-70
2022/12/12 08:34:22;;;;;;;45.67;22.77;;;;;;;-3.58;92.63;101426.16;5003485;28;20310;-70
2022/12/12 08:36:48;;;;;;;46.60;23.07;;;;;;;-3.56;92.62;101426.28;5011671;28;20604;-70
2022/12/12 08:39:15;;;;;;;49.00;23.60;;;;;;;-3.53;92.81;101419.94;5008296;28;20211;-70
2022/12/12 08:41:43;;;;;;;50.00;23.83;;;;;;;-3.44;93.58;101427.31;4993124;28;20256;-70
2022/12/12 08:44:12;;;;;;;48.00;22.13;;;;;;;-3.41;93.65;101425.09;5007653;28;20934;-70
2022/12/12 08:46:38;;;;;;;54.67;24.33;;;;;;;-3.26;94.03;101434.69;5004371;28;20183;-70
2022/12/12 08:49:03;;;;;;;56.77;27.07;;;;;;;-3.12;94.44;101438.38;5007001;28;20874;-70
2022/12/12 08:51:29;;;;;;;56.20;26.10;;;;;;;-3.05;95.18;101444.00;5008018;28;20218;-70
2022/12/12 08:53:55;;;;;;;52.13;27.93;;;;;;;-3.03;95.50;101441.63;5001047;28;20211;-70
2022/12/12 08:56:22;;;;;;;55.77;28.03;;;;;;;-3.01;95.62;101447.63;5000696;28;20207;-70
2022/12/12 08:58:48;;;;;;;55.47;26.00;;;;;;;-3.02;95.66;101446.75;5010596;28;20274;-70
2022/12/12 09:01:22;;;;;;;57.53;28.00;;;;;;;-2.98;95.61;101446.25;5014195;28;20482;-69
2022/12/12 09:03:49;;;;;;;54.97;26.13;;;;;;;-2.92;95.68;101451.75;5012129;28;20430;-70
2022/12/12 09:06:15;;;;;;;53.33;27.27;;;;;;;-2.88;95.87;101455.38;5001319;28;20221;-70
2022/12/12 09:08:41;;;;;;;53.00;25.50;;;;;;;-2.80;95.62;101446.88;5011219;28;20202;-69
2022/12/12 09:11:07;;;;;;;56.37;26.97;;;;;;;-2.73;95.92;101444.97;5008091;28;20234;-70
2022/12/12 09:13:33;;;;;;;52.47;25.97;;;;;;;-2.64;95.52;101444.84;5012444;28;20179;-70
2022/12/12 09:15:58;;;;;;;51.90;25.67;;;;;;;-2.57;95.76;101452.09;5006775;28;20184;-70
2022/12/12 09:18:25;;;;;;;54.83;27.67;;;;;;;-2.50;95.81;101456.84;5010883;28;20194;-71
2022/12/12 09:20:52;;;;;;;51.40;27.50;;;;;;;-2.40;95.57;101459.31;5000600;28;20231;-69
2022/12/12 09:23:19;;;;;;;54.53;25.87;;;;;;;-2.32;95.51;101461.69;5017542;28;20203;-69
2022/12/12 09:25:44;;;;;;;56.87;27.40;;;;;;;-2.20;95.25;101465.16;5009234;28;20278;-69
2022/12/12 09:28:11;;;;;;;58.63;27.87;;;;;;;-2.11;95.29;101463.38;5002953;28;20290;-69
2022/12/12 09:30:37;;;;;;;54.60;26.63;;;;;;;-2.01;95.12;101459.97;4984614;28;20180;-69
2022/12/12 09:33:03;;;;;;;52.97;28.03;;;;;;;-1.96;94.54;101449.53;5000789;28;20234;-70
2022/12/12 09:35:28;;;;;;;50.30;26.30;;;;;;;-1.94;94.40;101442.13;5011524;28;20637;-69
2022/12/12 09:37:54;;;;;;;55.40;27.93;;;;;;;-1.82;94.17;101438.06;5006992;28;20195;-70
2022/12/12 09:40:28;;;;;;;50.73;26.37;;;;;;;-1.70;93.84;101442.38;4997063;28;20687;-70
2022/12/12 09:42:54;;;;;;;55.37;26.43;;;;;;;-1.55;93.30;101441.06;4997720;28;20272;-72
2022/12/12 09:45:19;;;;;;;51.67;27.03;;;;;;;-1.42;93.13;101445.38;5011459;28;20583;-71
2022/12/12 09:47:51;;;;;;;55.67;25.90;;;;;;;-1.25;92.57;101440.84;5001465;28;20278;-70
2022/12/12 09:50:37;;;;;;;50.03;24.33;;;;;;;-1.13;92.24;101439.28;5009554;28;20187;-71
2022/12/12 09:53:11;;;;;;;51.40;24.63;;;;;;;-1.02;91.33;101438.41;5011337;28;20582;-71
2022/12/12 09:55:51;;;;;;;52.23;27.20;;;;;;;-0.85;91.52;101437.13;5011414;28;20330;-71
2022/12/12 09:58:20;;;;;;;47.30;26.07;;;;;;;-0.68;89.68;101437.59;5003098;28;20236;-71
2022/12/12 10:00:53;;;;;;;48.40;24.50;;;;;;;-0.53;88.91;101438.72;5007246;28;20215;-71
2022/12/12 10:03:37;;;;;;;48.67;25.57;;;;;;;-0.17;88.72;101440.47;5009079;28;20175;-71
2022/12/12 10:06:07;;;;;;;46.67;25.50;;;;;;;0.02;87.72;101443.50;5002879;28;20641;-70
2022/12/12 10:08:42;;;;;;;48.87;25.17;;;;;;;0.25;86.95;101443.47;5007274;28;20548;-70
2022/12/12 10:11:57;;;;;;;46.57;24.57;;;;;;;0.60;85.63;101441.75;5007303;28;20206;-71
2022/12/12 10:14:01;;;;;;;43.33;24.00;;;;;;;0.95;83.89;101441.56;5002814;28;20287;-71
2022/12/12 10:16:30;;;;;;;45.50;23.87;;;;;;;1.14;82.47;101439.50;5011085;28;20175;-71
2022/12/12 10:19:06;;;;;;;44.00;23.43;;;;;;;1.39;82.21;101436.16;5011416;28;20190;-72
2022/12/12 10:21:36;;;;;;;41.43;23.17;;;;;;;1.68;80.28;101428.81;5011150;28;20238;-71
2022/12/12 10:24:20;;;;;;;43.00;23.50;;;;;;;1.87;78.97;101431.69;5011138;28;20237;-71
2022/12/12 10:26:45;;;;;;;40.43;22.60;;;;;;;3.29;75.97;101426.03;5026118;28;20309;-71
2022/12/12 10:29:16;;;;;;;38.97;22.83;;;;;;;6.80;62.70;101406.88;5026060;28;20269;-71
2022/12/12 10:32:04;;;;;;;39.93;22.20;;;;;;;8.13;55.41;101401.34;5010868;28;20702;-71
2022/12/12 10:34:59;;;;;;;39.60;22.67;;;;;;;5.83;59.34;101408.38;5006462;28;20649;-71
2022/12/12 10:37:31;;;;;;;40.77;22.23;;;;;;;4.25;66.64;101427.28;4991576;28;20211;-71
2022/12/12 10:40:16;;;;;;;35.47;21.33;;;;;;;3.97;68.18;101426.59;5005477;28;20180;-71
2022/12/12 10:42:51;;;;;;;40.23;22.07;;;;;;;4.02;68.32;101430.25;4999591;28;20587;-71
2022/12/12 10:45:46;;;;;;;39.40;23.03;;;;;;;4.22;67.74;101428.78;5010786;28;20177;-71
2022/12/12 10:48:11;;;;;;;37.30;23.33;;;;;;;4.29;67.54;101421.59;5010721;28;20190;-72
2022/12/12 10:50:59;;;;;;;40.43;22.93;;;;;;;4.54;67.40;101416.13;5010562;28;20186;-72
2022/12/12 10:53:24;;;;;;;39.33;23.37;;;;;;;4.99;65.94;101409.25;5010610;28;20201;-71
2022/12/12 10:56:05;;;;;;;34.50;21.07;;;;;;;5.05;64.64;101403.59;5010748;28;20183;-71
2022/12/12 10:58:39;;;;;;;37.00;22.17;;;;;;;5.43;64.23;101399.59;5010544;28;20186;-72
2022/12/12 11:01:32;;;;;;;36.47;23.53;;;;;;;8.77;54.98;101379.94;5009111;28;20230;-71
2022/12/12 11:03:59;;;;;;;38.13;22.83;;;;;;;11.10;47.80;101364.13;5004978;28;20198;-71
2022/12/12 11:06:30;;;;;;;32.90;21.93;;;;;;;11.27;45.85;101367.97;5010315;28;20456;-71
2022/12/12 11:09:14;;;;;;;38.07;22.70;;;;;;;11.45;44.56;101377.00;5010396;28;20278;-72
2022/12/12 11:11:39;;;;;;;34.93;23.80;;;;;;;11.49;43.90;101377.94;5008138;28;20277;-71
2022/12/12 11:14:32;;;;;;;32.87;23.07;;;;;;;11.89;44.08;101360.94;4990916;28;20198;-71
2022/12/12 11:16:58;;;;;;;28.53;20.50;;;;;;;11.42;42.78;101376.91;5001085;28;20195;-72
2022/12/12 11:19:26;;;;;;;26.00;18.77;;;;;;;11.87;42.73;101367.75;5009981;28;20241;-72
2022/12/12 11:21:54;;;;;;;33.70;24.07;;;;;;;12.57;42.02;101367.53;5010019;28;20237;-72
2022/12/12 11:24:23;;;;;;;28.43;21.00;;;;;;;11.74;43.25;101368.31;5005341;28;20206;-71
2022/12/12 11:26:56;;;;;;;27.73;19.90;;;;;;;11.19;44.11;101382.28;4989180;28;20199;-71
2022/12/12 11:29:30;;;;;;;29.80;22.10;;;;;;;10.73;44.59;101380.22;4995542;28;20172;-71
2022/12/12 11:31:57;;;;;;;27.50;21.40;;;;;;;11.17;43.70;101376.25;5008116;28;20294;-71
2022/12/12 11:34:26;;;;;;;26.47;20.73;;;;;;;11.33;44.21;101379.25;5003757;28;20186;-71
2022/12/12 11:36:54;;;;;;;29.10;19.80;;;;;;;11.33;43.53;101369.00;5009539;28;20191;-71